Terminal Aerodrome Forecast
Issued by NWS

Home | Current Version | Previous Version | Text Only | Print | Product List | Glossary On
Versions: 1 2 3 4 5 6 7 8 9 10 11 12 13 14 15 16 17
000
FTUS43 KMQT 021734
TAFCMX
TAF
KCMX 021734Z 0218/0318 32010KT 5SM -SHSN OVC010
      TEMPO 0218/0219 2SM -SHSN OVC008
     FM022200 31009KT P6SM OVC010
     FM030200 32005KT 3SM -SHSN OVC015
     FM030900 31004KT 2SM -SHSN OVC010=

USA.gov is the U.S. government's official web portal to all federal, state and local government web resources and services.